Aérodrome :
LOGIN :

S'inscrire | Disclaimer

   EN    FR    IT 

 










Légende :    VFR   VFR Marginal   IFR   IFR Intensif   IFR Très Intensif
Visi : 
Plafond : 
>= 8 km
>= 3000ft
5 à 8 km
1000 à 3000 ft
1500m à 5 km
500 à 1000 ft
800 à 1500m
200 à 500 ft
< 800m
< 200 ft
Symboles :   Orages  Brouillard  Fortes neiges  Fortes précipitations  Vent > 20 kt
SIGMETs :   Divers  Orages  Givrage  Turbulence  Onde Orograph.  Cendres Volcan.






- Altitude de l'aérodrome : 489 ft
- Code IATA : GDN


EPGD - Gdansk

DERNIER METAR :
  • 211830Z 13017KT 9999 OVC009 05/04 Q1017

METARs EXPIRÉS :
  • 211800Z 12019KT 9999 OVC009 05/04 Q1017
  • 211730Z 12020KT 9999 OVC009 05/04 Q1017
  • 211700Z 13021KT 9999 OVC008 05/04 Q1017
  • 211630Z 12019KT 9999 FEW003 OVC007 05/05 Q1017
  • 211600Z 13019KT 9999 FEW004 OVC007 06/05 Q1017

TAF TAF EPGD
Valide du 21 à 18h jusqu'au 22 à 18h UTC


211730Z 2118/2218 12018KT 9999 BKN007
TEMPO 2118/2122 14018G28KT 4000 -RADZ OVC004
TEMPO 2122/2209 3000 RADZ BR BKN002
BECMG 2210/2212 BKN010



MET'MAP, la Météo Aéronautique d'un coup d'oeil ! - Copyright ORBIFLY Décembre 2007 - Disclaimer

ORBIFLY MET'MAP TEAM :

Programmation & Développement : Alexandra Zaïnal
Conception & Développement : Baudouin d'Aumeries
Co-Programmation & Développement : Marc-Olivier Méhu
Soutien technique & logistique : Manuel Goepfert

Contact : metmap@orbifly.com




SOURCES & CREDITS :

   NOAA